sensor_id;sensor_type;location;lat;lon;timestamp;pressure;altitude;pressure_sealevel;temperature;humidity
11114;BME280;5610;52.154;9.198;2022-07-23T00:02:21;100935.72;;;16.50;100.00
11114;BME280;5610;52.154;9.198;2022-07-23T00:05:07;100930.91;;;16.54;100.00
11114;BME280;5610;52.154;9.198;2022-07-23T00:07:52;100930.78;;;16.55;100.00
11114;BME280;5610;52.154;9.198;2022-07-23T00:10:39;100934.94;;;16.59;100.00
11114;BME280;5610;52.154;9.198;2022-07-23T00:13:24;100938.50;;;16.60;100.00
11114;BME280;5610;52.154;9.198;2022-07-23T00:16:09;100936.78;;;16.59;100.00
11114;BME280;5610;52.154;9.198;2022-07-23T00:18:55;100936.78;;;16.59;100.00
11114;BME280;5610;52.154;9.198;2022-07-23T00:21:40;100938.75;;;16.57;100.00
11114;BME280;5610;52.154;9.198;2022-07-23T00:24:25;100944.38;;;16.54;100.00
11114;BME280;5610;52.154;9.198;2022-07-23T00:27:12;100937.41;;;16.51;100.00
11114;BME280;5610;52.154;9.198;2022-07-23T00:29:58;100938.63;;;16.47;100.00
11114;BME280;5610;52.154;9.198;2022-07-23T00:32:47;100933.50;;;16.44;100.00
11114;BME280;5610;52.154;9.198;2022-07-23T00:35:34;100923.97;;;16.40;100.00
11114;BME280;5610;52.154;9.198;2022-07-23T00:38:19;100919.94;;;16.34;100.00
11114;BME280;5610;52.154;9.198;2022-07-23T00:41:05;100926.69;;;16.29;100.00
11114;BME280;5610;52.154;9.198;2022-07-23T00:43:52;100929.63;;;16.26;100.00
11114;BME280;5610;52.154;9.198;2022-07-23T00:46:37;100927.41;;;16.19;100.00
11114;BME280;5610;52.154;9.198;2022-07-23T00:49:25;100933.91;;;16.17;100.00
11114;BME280;5610;52.154;9.198;2022-07-23T00:52:10;100926.97;;;16.14;100.00
11114;BME280;5610;52.154;9.198;2022-07-23T00:54:56;100935.03;;;16.14;100.00
11114;BME280;5610;52.154;9.198;2022-07-23T00:57:42;100944.03;;;16.13;100.00
11114;BME280;5610;52.154;9.198;2022-07-23T01:00:28;100937.72;;;16.14;100.00
11114;BME280;5610;52.154;9.198;2022-07-23T01:03:14;100930.13;;;16.08;100.00
11114;BME280;5610;52.154;9.198;2022-07-23T01:05:59;100927.31;;;16.10;100.00
11114;BME280;5610;52.154;9.198;2022-07-23T01:08:44;100934.66;;;16.08;100.00
11114;BME280;5610;52.154;9.198;2022-07-23T01:11:33;100935.00;;;16.03;100.00
11114;BME280;5610;52.154;9.198;2022-07-23T01:14:18;100929.75;;;16.02;100.00
11114;BME280;5610;52.154;9.198;2022-07-23T01:17:06;100926.31;;;16.00;100.00
11114;BME280;5610;52.154;9.198;2022-07-23T01:19:51;100923.41;;;16.03;100.00
11114;BME280;5610;52.154;9.198;2022-07-23T01:22:38;100928.91;;;16.01;100.00
11114;BME280;5610;52.154;9.198;2022-07-23T01:25:24;100928.06;;;16.01;100.00
11114;BME280;5610;52.154;9.198;2022-07-23T01:28:19;100928.06;;;16.01;100.00
11114;BME280;5610;52.154;9.198;2022-07-23T01:31:04;100933.44;;;16.01;100.00
11114;BME280;5610;52.154;9.198;2022-07-23T01:33:53;100933.44;;;16.01;100.00
11114;BME280;5610;52.154;9.198;2022-07-23T01:36:38;100937.44;;;16.06;100.00
11114;BME280;5610;52.154;9.198;2022-07-23T01:39:25;100944.44;;;16.09;100.00
11114;BME280;5610;52.154;9.198;2022-07-23T01:42:11;100935.13;;;16.13;100.00
11114;BME280;5610;52.154;9.198;2022-07-23T01:44:56;100940.13;;;16.17;100.00
11114;BME280;5610;52.154;9.198;2022-07-23T01:47:42;100935.25;;;16.23;100.00
11114;BME280;5610;52.154;9.198;2022-07-23T01:50:27;100920.34;;;16.30;100.00
11114;BME280;5610;52.154;9.198;2022-07-23T01:53:30;100923.25;;;16.38;100.00
11114;BME280;5610;52.154;9.198;2022-07-23T01:56:17;100930.06;;;16.42;100.00
11114;BME280;5610;52.154;9.198;2022-07-23T01:59:04;100940.59;;;16.45;100.00
11114;BME280;5610;52.154;9.198;2022-07-23T02:01:49;100946.69;;;16.47;100.00
11114;BME280;5610;52.154;9.198;2022-07-23T02:04:35;100951.34;;;16.45;100.00
11114;BME280;5610;52.154;9.198;2022-07-23T02:07:20;100946.84;;;16.45;100.00
11114;BME280;5610;52.154;9.198;2022-07-23T02:10:06;100938.63;;;16.47;100.00
11114;BME280;5610;52.154;9.198;2022-07-23T02:12:53;100932.03;;;16.51;100.00
11114;BME280;5610;52.154;9.198;2022-07-23T02:15:38;100938.00;;;16.55;100.00
11114;BME280;5610;52.154;9.198;2022-07-23T02:18:24;100934.81;;;16.61;100.00
11114;BME280;5610;52.154;9.198;2022-07-23T02:21:09;100922.97;;;16.63;100.00
11114;BME280;5610;52.154;9.198;2022-07-23T02:23:54;100920.00;;;16.66;100.00
11114;BME280;5610;52.154;9.198;2022-07-23T02:26:40;100916.19;;;16.69;100.00
11114;BME280;5610;52.154;9.198;2022-07-23T02:29:27;100917.34;;;16.55;100.00
11114;BME280;5610;52.154;9.198;2022-07-23T02:32:12;100896.09;;;16.52;100.00
11114;BME280;5610;52.154;9.198;2022-07-23T02:34:58;100894.97;;;16.55;100.00
11114;BME280;5610;52.154;9.198;2022-07-23T02:37:43;100886.66;;;16.58;100.00
11114;BME280;5610;52.154;9.198;2022-07-23T02:40:28;100875.75;;;16.59;100.00
11114;BME280;5610;52.154;9.198;2022-07-23T02:43:14;100878.94;;;16.64;100.00
11114;BME280;5610;52.154;9.198;2022-07-23T02:46:00;100866.34;;;16.65;100.00
11114;BME280;5610;52.154;9.198;2022-07-23T02:48:46;100871.44;;;16.68;100.00
11114;BME280;5610;52.154;9.198;2022-07-23T02:51:31;100873.28;;;16.67;100.00
11114;BME280;5610;52.154;9.198;2022-07-23T02:54:21;100871.84;;;16.63;100.00
11114;BME280;5610;52.154;9.198;2022-07-23T02:57:06;100863.03;;;16.61;100.00
11114;BME280;5610;52.154;9.198;2022-07-23T02:59:51;100866.50;;;16.52;100.00
11114;BME280;5610;52.154;9.198;2022-07-23T03:02:38;100874.56;;;16.41;100.00
11114;BME280;5610;52.154;9.198;2022-07-23T03:05:23;100875.97;;;16.35;100.00
11114;BME280;5610;52.154;9.198;2022-07-23T03:08:09;100871.59;;;16.23;100.00
11114;BME280;5610;52.154;9.198;2022-07-23T03:10:58;100860.97;;;16.22;100.00
11114;BME280;5610;52.154;9.198;2022-07-23T03:13:44;100867.56;;;16.17;100.00
11114;BME280;5610;52.154;9.198;2022-07-23T03:16:29;100873.66;;;16.19;100.00
11114;BME280;5610;52.154;9.198;2022-07-23T03:19:16;100876.72;;;16.15;100.00
11114;BME280;5610;52.154;9.198;2022-07-23T03:22:01;100873.28;;;16.13;100.00
11114;BME280;5610;52.154;9.198;2022-07-23T03:24:47;100887.72;;;16.12;100.00
11114;BME280;5610;52.154;9.198;2022-07-23T03:27:41;100888.19;;;16.06;100.00
11114;BME280;5610;52.154;9.198;2022-07-23T03:30:29;100878.22;;;16.08;100.00
11114;BME280;5610;52.154;9.198;2022-07-23T03:33:15;100871.00;;;16.08;100.00
11114;BME280;5610;52.154;9.198;2022-07-23T03:36:03;100884.91;;;16.13;100.00
11114;BME280;5610;52.154;9.198;2022-07-23T03:38:50;100886.38;;;16.17;100.00
11114;BME280;5610;52.154;9.198;2022-07-23T03:41:35;100887.09;;;16.19;100.00
11114;BME280;5610;52.154;9.198;2022-07-23T03:44:21;100889.91;;;16.18;100.00
11114;BME280;5610;52.154;9.198;2022-07-23T03:47:06;100889.91;;;16.18;100.00
11114;BME280;5610;52.154;9.198;2022-07-23T03:49:51;100892.59;;;16.18;100.00
11114;BME280;5610;52.154;9.198;2022-07-23T03:52:38;100897.84;;;16.19;100.00
11114;BME280;5610;52.154;9.198;2022-07-23T03:55:23;100896.63;;;16.24;100.00
11114;BME280;5610;52.154;9.198;2022-07-23T03:58:09;100909.09;;;16.25;100.00
11114;BME280;5610;52.154;9.198;2022-07-23T04:00:54;100905.56;;;16.24;100.00
11114;BME280;5610;52.154;9.198;2022-07-23T04:03:39;100903.72;;;16.25;100.00
11114;BME280;5610;52.154;9.198;2022-07-23T04:06:25;100909.22;;;16.23;100.00
11114;BME280;5610;52.154;9.198;2022-07-23T04:09:13;100900.16;;;16.24;100.00
11114;BME280;5610;52.154;9.198;2022-07-23T04:11:58;100902.00;;;16.24;100.00
11114;BME280;5610;52.154;9.198;2022-07-23T04:14:45;100898.34;;;16.25;100.00
11114;BME280;5610;52.154;9.198;2022-07-23T04:17:30;100897.22;;;16.27;100.00
11114;BME280;5610;52.154;9.198;2022-07-23T04:20:16;100898.97;;;16.28;100.00
11114;BME280;5610;52.154;9.198;2022-07-23T04:23:07;100907.75;;;16.30;100.00
11114;BME280;5610;52.154;9.198;2022-07-23T04:25:54;100905.66;;;16.34;100.00
11114;BME280;5610;52.154;9.198;2022-07-23T04:28:40;100901.03;;;16.36;100.00
11114;BME280;5610;52.154;9.198;2022-07-23T04:31:25;100900.53;;;16.31;100.00
11114;BME280;5610;52.154;9.198;2022-07-23T04:34:10;100903.81;;;16.34;100.00
11114;BME280;5610;52.154;9.198;2022-07-23T04:36:55;100901.88;;;16.36;100.00
11114;BME280;5610;52.154;9.198;2022-07-23T04:39:41;100902.94;;;16.45;100.00
11114;BME280;5610;52.154;9.198;2022-07-23T04:42:27;100894.50;;;16.50;100.00
11114;BME280;5610;52.154;9.198;2022-07-23T04:45:13;100902.94;;;16.56;100.00
11114;BME280;5610;52.154;9.198;2022-07-23T04:47:59;100901.31;;;16.65;100.00
11114;BME280;5610;52.154;9.198;2022-07-23T04:50:45;100905.09;;;16.73;100.00
11114;BME280;5610;52.154;9.198;2022-07-23T04:53:36;100895.81;;;16.78;100.00
11114;BME280;5610;52.154;9.198;2022-07-23T04:56:22;100903.59;;;16.81;100.00
11114;BME280;5610;52.154;9.198;2022-07-23T04:59:09;100908.28;;;16.79;100.00
11114;BME280;5610;52.154;9.198;2022-07-23T05:01:55;100908.28;;;16.79;100.00
11114;BME280;5610;52.154;9.198;2022-07-23T05:04:40;100908.38;;;16.77;100.00
11114;BME280;5610;52.154;9.198;2022-07-23T05:07:26;100901.56;;;16.73;100.00
11114;BME280;5610;52.154;9.198;2022-07-23T05:10:11;100906.81;;;16.74;100.00
11114;BME280;5610;52.154;9.198;2022-07-23T05:12:56;100911.53;;;16.82;100.00
11114;BME280;5610;52.154;9.198;2022-07-23T05:15:43;100908.06;;;16.91;100.00
11114;BME280;5610;52.154;9.198;2022-07-23T05:18:28;100907.19;;;17.02;100.00
11114;BME280;5610;52.154;9.198;2022-07-23T05:21:13;100912.13;;;17.18;100.00
11114;BME280;5610;52.154;9.198;2022-07-23T05:23:59;100911.34;;;17.27;100.00
11114;BME280;5610;52.154;9.198;2022-07-23T05:26:45;100908.38;;;17.30;100.00
11114;BME280;5610;52.154;9.198;2022-07-23T05:29:30;100907.72;;;17.38;100.00
11114;BME280;5610;52.154;9.198;2022-07-23T05:32:17;100924.34;;;17.43;100.00
11114;BME280;5610;52.154;9.198;2022-07-23T05:35:10;100921.84;;;17.51;100.00
11114;BME280;5610;52.154;9.198;2022-07-23T05:37:59;100919.34;;;17.59;100.00
11114;BME280;5610;52.154;9.198;2022-07-23T05:40:44;100917.97;;;17.65;100.00
11114;BME280;5610;52.154;9.198;2022-07-23T05:43:29;100922.75;;;17.61;100.00
11114;BME280;5610;52.154;9.198;2022-07-23T05:46:18;100920.47;;;17.56;100.00
11114;BME280;5610;52.154;9.198;2022-07-23T05:49:10;100927.81;;;17.54;100.00
11114;BME280;5610;52.154;9.198;2022-07-23T05:52:12;100936.03;;;17.53;100.00
11114;BME280;5610;52.154;9.198;2022-07-23T05:55:20;100932.34;;;17.54;100.00
11114;BME280;5610;52.154;9.198;2022-07-23T05:58:05;100921.31;;;17.57;100.00
11114;BME280;5610;52.154;9.198;2022-07-23T06:00:52;100919.34;;;17.59;100.00
11114;BME280;5610;52.154;9.198;2022-07-23T06:03:38;100929.72;;;17.64;100.00
11114;BME280;5610;52.154;9.198;2022-07-23T06:06:25;100927.38;;;17.70;100.00
11114;BME280;5610;52.154;9.198;2022-07-23T06:09:10;100926.13;;;17.74;100.00
11114;BME280;5610;52.154;9.198;2022-07-23T06:11:58;100928.03;;;17.83;100.00
11114;BME280;5610;52.154;9.198;2022-07-23T06:14:43;100927.63;;;17.88;100.00
11114;BME280;5610;52.154;9.198;2022-07-23T06:17:29;100929.63;;;17.96;100.00
11114;BME280;5610;52.154;9.198;2022-07-23T06:20:14;100932.78;;;18.01;100.00
11114;BME280;5610;52.154;9.198;2022-07-23T06:23:01;100925.16;;;18.06;100.00
11114;BME280;5610;52.154;9.198;2022-07-23T06:25:47;100924.72;;;18.10;100.00
11114;BME280;5610;52.154;9.198;2022-07-23T06:28:32;100925.03;;;18.17;100.00
11114;BME280;5610;52.154;9.198;2022-07-23T06:31:17;100917.69;;;18.19;100.00
11114;BME280;5610;52.154;9.198;2022-07-23T06:34:03;100921.66;;;18.25;100.00
11114;BME280;5610;52.154;9.198;2022-07-23T06:36:48;100927.50;;;18.30;100.00
11114;BME280;5610;52.154;9.198;2022-07-23T06:39:35;100927.66;;;18.38;100.00
11114;BME280;5610;52.154;9.198;2022-07-23T06:42:21;100937.75;;;18.46;100.00
11114;BME280;5610;52.154;9.198;2022-07-23T06:45:14;100933.25;;;18.56;100.00
11114;BME280;5610;52.154;9.198;2022-07-23T06:47:59;100950.75;;;18.61;100.00
11114;BME280;5610;52.154;9.198;2022-07-23T06:50:46;100942.69;;;18.71;100.00
11114;BME280;5610;52.154;9.198;2022-07-23T06:53:31;100949.38;;;18.77;100.00
11114;BME280;5610;52.154;9.198;2022-07-23T06:56:18;100952.38;;;18.83;100.00
11114;BME280;5610;52.154;9.198;2022-07-23T06:59:03;100952.94;;;18.87;100.00
11114;BME280;5610;52.154;9.198;2022-07-23T07:01:49;100952.13;;;18.96;100.00
11114;BME280;5610;52.154;9.198;2022-07-23T07:04:35;100953.66;;;18.99;100.00
11114;BME280;5610;52.154;9.198;2022-07-23T07:07:20;100961.22;;;19.05;100.00
11114;BME280;5610;52.154;9.198;2022-07-23T07:10:06;100962.75;;;19.07;100.00
11114;BME280;5610;52.154;9.198;2022-07-23T07:12:53;100964.75;;;19.15;100.00
11114;BME280;5610;52.154;9.198;2022-07-23T07:15:38;100966.03;;;19.20;100.00
11114;BME280;5610;52.154;9.198;2022-07-23T07:18:23;100972.44;;;19.29;100.00
11114;BME280;5610;52.154;9.198;2022-07-23T07:21:09;100970.59;;;19.39;100.00
11114;BME280;5610;52.154;9.198;2022-07-23T07:23:54;100971.84;;;19.45;100.00
11114;BME280;5610;52.154;9.198;2022-07-23T07:26:40;100972.44;;;19.48;100.00
11114;BME280;5610;52.154;9.198;2022-07-23T07:29:26;100976.25;;;19.75;100.00
11114;BME280;5610;52.154;9.198;2022-07-23T07:32:12;100970.78;;;19.94;100.00
11114;BME280;5610;52.154;9.198;2022-07-23T07:34:57;100973.69;;;20.20;100.00
11114;BME280;5610;52.154;9.198;2022-07-23T07:37:42;100980.31;;;20.36;100.00
11114;BME280;5610;52.154;9.198;2022-07-23T07:40:28;100975.78;;;20.64;100.00
11114;BME280;5610;52.154;9.198;2022-07-23T07:43:13;100977.84;;;20.79;100.00
11114;BME280;5610;52.154;9.198;2022-07-23T07:46:00;100972.91;;;21.10;100.00
11114;BME280;5610;52.154;9.198;2022-07-23T07:48:45;100979.41;;;21.53;100.00
11114;BME280;5610;52.154;9.198;2022-07-23T07:51:31;100978.44;;;22.06;100.00
11114;BME280;5610;52.154;9.198;2022-07-23T07:54:17;100983.97;;;21.97;100.00
11114;BME280;5610;52.154;9.198;2022-07-23T07:57:02;100989.38;;;22.14;100.00
11114;BME280;5610;52.154;9.198;2022-07-23T07:59:47;100985.00;;;22.22;100.00
11114;BME280;5610;52.154;9.198;2022-07-23T08:02:43;100994.22;;;22.37;100.00
11114;BME280;5610;52.154;9.198;2022-07-23T08:05:29;100998.22;;;22.59;100.00
11114;BME280;5610;52.154;9.198;2022-07-23T08:08:15;100996.22;;;22.69;100.00
11114;BME280;5610;52.154;9.198;2022-07-23T08:11:00;101003.47;;;22.94;100.00
11114;BME280;5610;52.154;9.198;2022-07-23T08:13:45;100999.63;;;23.13;100.00
11114;BME280;5610;52.154;9.198;2022-07-23T08:16:31;100995.22;;;23.28;96.12
11114;BME280;5610;52.154;9.198;2022-07-23T08:19:18;100993.84;;;23.33;95.15
11114;BME280;5610;52.154;9.198;2022-07-23T08:22:03;100993.00;;;23.32;92.50
11114;BME280;5610;52.154;9.198;2022-07-23T08:24:48;100998.47;;;23.48;90.99
11114;BME280;5610;52.154;9.198;2022-07-23T08:27:34;100993.88;;;23.90;85.71
11114;BME280;5610;52.154;9.198;2022-07-23T08:30:20;100991.25;;;24.21;78.15
11114;BME280;5610;52.154;9.198;2022-07-23T08:33:07;100995.63;;;24.46;82.16
11114;BME280;5610;52.154;9.198;2022-07-23T08:35:56;101001.31;;;24.68;79.33
11114;BME280;5610;52.154;9.198;2022-07-23T08:38:41;101006.53;;;24.38;77.95
11114;BME280;5610;52.154;9.198;2022-07-23T08:41:26;101008.44;;;24.21;78.68
11114;BME280;5610;52.154;9.198;2022-07-23T08:44:12;101010.31;;;24.13;80.95
11114;BME280;5610;52.154;9.198;2022-07-23T08:46:57;101009.97;;;24.07;79.53
11114;BME280;5610;52.154;9.198;2022-07-23T08:49:43;101013.94;;;23.56;81.09
11114;BME280;5610;52.154;9.198;2022-07-23T08:52:31;101013.22;;;24.11;81.48
11114;BME280;5610;52.154;9.198;2022-07-23T08:55:18;101005.84;;;24.28;77.74
11114;BME280;5610;52.154;9.198;2022-07-23T08:58:03;101011.13;;;24.46;75.46
11114;BME280;5610;52.154;9.198;2022-07-23T09:00:49;101015.22;;;24.42;74.16
11114;BME280;5610;52.154;9.198;2022-07-23T09:03:37;101011.38;;;24.59;74.62
11114;BME280;5610;52.154;9.198;2022-07-23T09:06:23;101009.66;;;24.66;75.26
11114;BME280;5610;52.154;9.198;2022-07-23T09:09:17;101013.13;;;25.45;70.53
11114;BME280;5610;52.154;9.198;2022-07-23T09:12:04;101010.88;;;25.48;67.33
11114;BME280;5610;52.154;9.198;2022-07-23T09:14:49;101006.81;;;24.90;62.45
11114;BME280;5610;52.154;9.198;2022-07-23T09:17:40;101016.41;;;24.78;66.93
11114;BME280;5610;52.154;9.198;2022-07-23T09:20:25;101013.59;;;24.63;69.02
11114;BME280;5610;52.154;9.198;2022-07-23T09:23:12;101011.13;;;24.37;70.95
11114;BME280;5610;52.154;9.198;2022-07-23T09:26:00;101011.97;;;24.38;74.75
11114;BME280;5610;52.154;9.198;2022-07-23T09:28:57;101013.81;;;25.16;72.54
11114;BME280;5610;52.154;9.198;2022-07-23T09:31:45;101008.22;;;25.40;63.30
11114;BME280;5610;52.154;9.198;2022-07-23T09:34:32;101011.59;;;25.42;65.33
11114;BME280;5610;52.154;9.198;2022-07-23T09:37:21;101008.75;;;25.36;66.61
11114;BME280;5610;52.154;9.198;2022-07-23T09:40:09;100994.94;;;25.37;65.47
11114;BME280;5610;52.154;9.198;2022-07-23T09:42:57;101001.81;;;25.71;64.30
11114;BME280;5610;52.154;9.198;2022-07-23T09:45:42;101003.00;;;25.77;63.54
11114;BME280;5610;52.154;9.198;2022-07-23T09:48:27;101009.13;;;26.46;61.32
11114;BME280;5610;52.154;9.198;2022-07-23T09:51:13;101001.47;;;26.92;61.21
11114;BME280;5610;52.154;9.198;2022-07-23T09:54:00;101000.16;;;26.52;60.41
11114;BME280;5610;52.154;9.198;2022-07-23T09:56:47;101006.50;;;26.89;59.18
11114;BME280;5610;52.154;9.198;2022-07-23T09:59:36;101010.00;;;26.82;59.51
11114;BME280;5610;52.154;9.198;2022-07-23T10:02:23;101006.50;;;26.89;54.70
11114;BME280;5610;52.154;9.198;2022-07-23T10:05:30;101001.88;;;27.25;52.10
11114;BME280;5610;52.154;9.198;2022-07-23T10:08:25;101010.47;;;27.86;54.97
11114;BME280;5610;52.154;9.198;2022-07-23T10:11:33;101007.66;;;28.70;53.09
11114;BME280;5610;52.154;9.198;2022-07-23T10:14:27;101010.97;;;28.59;51.48
11114;BME280;5610;52.154;9.198;2022-07-23T10:17:18;101024.81;;;28.16;51.27
11114;BME280;5610;52.154;9.198;2022-07-23T10:20:05;101013.53;;;28.67;50.03
11114;BME280;5610;52.154;9.198;2022-07-23T10:22:56;101000.66;;;29.16;50.88
11114;BME280;5610;52.154;9.198;2022-07-23T10:25:49;101007.47;;;28.79;47.35
11114;BME280;5610;52.154;9.198;2022-07-23T10:28:56;101008.25;;;29.20;48.44
11114;BME280;5610;52.154;9.198;2022-07-23T10:31:52;101007.09;;;29.69;48.50
11114;BME280;5610;52.154;9.198;2022-07-23T10:34:44;101004.97;;;30.18;46.62
11114;BME280;5610;52.154;9.198;2022-07-23T10:37:38;101006.97;;;30.49;47.92
11114;BME280;5610;52.154;9.198;2022-07-23T10:40:24;101002.22;;;29.85;47.85
11114;BME280;5610;52.154;9.198;2022-07-23T10:43:14;101002.00;;;29.79;48.63
11114;BME280;5610;52.154;9.198;2022-07-23T10:46:21;101005.81;;;29.92;47.45
11114;BME280;5610;52.154;9.198;2022-07-23T10:49:22;101003.22;;;30.30;45.93
11114;BME280;5610;52.154;9.198;2022-07-23T10:52:23;101007.50;;;29.60;48.10
11114;BME280;5610;52.154;9.198;2022-07-23T10:55:40;101011.53;;;29.70;46.97
11114;BME280;5610;52.154;9.198;2022-07-23T10:58:45;101001.59;;;29.89;47.71
11114;BME280;5610;52.154;9.198;2022-07-23T11:01:35;101008.44;;;31.48;44.36
11114;BME280;5610;52.154;9.198;2022-07-23T11:04:50;100998.63;;;31.20;43.66
11114;BME280;5610;52.154;9.198;2022-07-23T11:08:11;100997.03;;;30.54;42.58
11114;BME280;5610;52.154;9.198;2022-07-23T11:11:09;100987.78;;;33.82;41.05
11114;BME280;5610;52.154;9.198;2022-07-23T11:13:54;101000.19;;;34.50;38.72
11114;BME280;5610;52.154;9.198;2022-07-23T11:16:46;100990.56;;;33.28;39.50
11114;BME280;5610;52.154;9.198;2022-07-23T11:22:59;100992.41;;;32.31;41.43
11114;BME280;5610;52.154;9.198;2022-07-23T11:25:44;100986.16;;;32.79;41.16
11114;BME280;5610;52.154;9.198;2022-07-23T11:28:29;100981.13;;;34.65;39.42
11114;BME280;5610;52.154;9.198;2022-07-23T11:31:17;100973.44;;;38.24;35.47
11114;BME280;5610;52.154;9.198;2022-07-23T11:34:24;100988.03;;;41.35;29.93
11114;BME280;5610;52.154;9.198;2022-07-23T11:37:11;100974.97;;;42.42;28.96
11114;BME280;5610;52.154;9.198;2022-07-23T11:39:58;100976.25;;;43.49;26.66
11114;BME280;5610;52.154;9.198;2022-07-23T11:42:52;100977.47;;;41.61;28.47
11114;BME280;5610;52.154;9.198;2022-07-23T11:45:39;100972.63;;;42.73;26.72
11114;BME280;5610;52.154;9.198;2022-07-23T11:48:26;100973.53;;;43.76;25.97
11114;BME280;5610;52.154;9.198;2022-07-23T11:51:24;100964.47;;;43.14;28.21
11114;BME280;5610;52.154;9.198;2022-07-23T11:54:10;100958.91;;;44.07;25.43
11114;BME280;5610;52.154;9.198;2022-07-23T11:56:57;100977.50;;;45.66;24.86
11114;BME280;5610;52.154;9.198;2022-07-23T11:59:45;100965.50;;;46.54;23.80
11114;BME280;5610;52.154;9.198;2022-07-23T12:02:31;100967.97;;;44.31;24.71
11114;BME280;5610;52.154;9.198;2022-07-23T12:05:17;100969.31;;;43.93;25.22
11114;BME280;5610;52.154;9.198;2022-07-23T12:08:04;100969.19;;;43.98;25.61
11114;BME280;5610;52.154;9.198;2022-07-23T12:10:50;100970.34;;;43.31;26.39
11114;BME280;5610;52.154;9.198;2022-07-23T12:13:37;100966.72;;;42.03;26.58
11114;BME280;5610;52.154;9.198;2022-07-23T12:16:22;100969.56;;;42.69;26.97
11114;BME280;5610;52.154;9.198;2022-07-23T12:19:07;100962.47;;;44.26;25.97
11114;BME280;5610;52.154;9.198;2022-07-23T12:21:53;100969.34;;;45.87;23.95
11114;BME280;5610;52.154;9.198;2022-07-23T12:24:59;100960.84;;;46.49;22.57
11114;BME280;5610;52.154;9.198;2022-07-23T12:27:45;100955.19;;;46.49;23.12
11114;BME280;5610;52.154;9.198;2022-07-23T12:30:33;100963.56;;;46.98;22.60
11114;BME280;5610;52.154;9.198;2022-07-23T12:33:23;100959.06;;;47.40;22.97
11114;BME280;5610;52.154;9.198;2022-07-23T12:36:09;100962.19;;;47.47;21.84
11114;BME280;5610;52.154;9.198;2022-07-23T12:38:55;100955.69;;;45.72;23.45
11114;BME280;5610;52.154;9.198;2022-07-23T12:41:55;100958.66;;;46.07;23.55
11114;BME280;5610;52.154;9.198;2022-07-23T12:44:41;100957.75;;;47.03;23.13
11114;BME280;5610;52.154;9.198;2022-07-23T12:47:27;100961.41;;;46.95;22.22
11114;BME280;5610;52.154;9.198;2022-07-23T12:50:35;100960.56;;;47.20;22.66
11114;BME280;5610;52.154;9.198;2022-07-23T12:53:22;100953.34;;;47.75;22.00
11114;BME280;5610;52.154;9.198;2022-07-23T12:56:09;100957.72;;;48.10;22.01
11114;BME280;5610;52.154;9.198;2022-07-23T12:58:56;100952.75;;;48.66;21.63
11114;BME280;5610;52.154;9.198;2022-07-23T13:01:43;100955.22;;;48.68;21.85
11114;BME280;5610;52.154;9.198;2022-07-23T13:04:33;100955.84;;;49.15;21.12
11114;BME280;5610;52.154;9.198;2022-07-23T13:07:18;100958.28;;;48.25;21.84
11114;BME280;5610;52.154;9.198;2022-07-23T13:10:04;100954.56;;;45.51;23.75
11114;BME280;5610;52.154;9.198;2022-07-23T13:12:49;100959.97;;;46.40;23.02
11114;BME280;5610;52.154;9.198;2022-07-23T13:15:34;100964.31;;;47.76;22.13
11114;BME280;5610;52.154;9.198;2022-07-23T13:18:20;100955.59;;;47.26;22.53
11114;BME280;5610;52.154;9.198;2022-07-23T13:21:08;100952.97;;;44.77;23.42
11114;BME280;5610;52.154;9.198;2022-07-23T13:23:53;100954.06;;;45.80;23.16
11114;BME280;5610;52.154;9.198;2022-07-23T13:26:39;100959.41;;;46.87;20.89
11114;BME280;5610;52.154;9.198;2022-07-23T13:29:24;100963.91;;;47.31;21.29
11114;BME280;5610;52.154;9.198;2022-07-23T13:32:11;100965.25;;;47.25;22.37
11114;BME280;5610;52.154;9.198;2022-07-23T13:34:57;100964.50;;;47.63;21.68
11114;BME280;5610;52.154;9.198;2022-07-23T13:37:43;100957.31;;;48.21;21.00
11114;BME280;5610;52.154;9.198;2022-07-23T13:40:28;100957.53;;;48.07;21.75
11114;BME280;5610;52.154;9.198;2022-07-23T13:43:15;100944.34;;;48.49;20.90
11114;BME280;5610;52.154;9.198;2022-07-23T13:46:01;100952.78;;;48.37;21.45
11114;BME280;5610;52.154;9.198;2022-07-23T13:48:47;100955.47;;;48.25;20.93
11114;BME280;5610;52.154;9.198;2022-07-23T13:51:32;100953.75;;;48.62;20.65
11114;BME280;5610;52.154;9.198;2022-07-23T13:54:19;100955.44;;;48.84;21.38
11114;BME280;5610;52.154;9.198;2022-07-23T13:57:04;100952.97;;;49.36;19.44
11114;BME280;5610;52.154;9.198;2022-07-23T13:59:50;100949.25;;;46.60;22.75
11114;BME280;5610;52.154;9.198;2022-07-23T14:02:35;100951.78;;;47.22;20.18
11114;BME280;5610;52.154;9.198;2022-07-23T14:05:22;100946.66;;;47.97;21.31
11114;BME280;5610;52.154;9.198;2022-07-23T14:08:08;100950.91;;;48.62;20.56
11114;BME280;5610;52.154;9.198;2022-07-23T14:10:54;100947.00;;;45.15;23.22
11114;BME280;5610;52.154;9.198;2022-07-23T14:13:40;100950.28;;;42.87;22.31
11114;BME280;5610;52.154;9.198;2022-07-23T14:16:25;100963.22;;;41.24;26.21
11114;BME280;5610;52.154;9.198;2022-07-23T14:19:11;100958.22;;;39.45;27.69
11114;BME280;5610;52.154;9.198;2022-07-23T14:21:56;100959.84;;;39.00;29.30
11114;BME280;5610;52.154;9.198;2022-07-23T14:24:41;100953.97;;;38.24;29.70
11114;BME280;5610;52.154;9.198;2022-07-23T14:27:28;100959.75;;;37.75;30.33
11114;BME280;5610;52.154;9.198;2022-07-23T14:30:14;100951.47;;;37.43;30.15
11114;BME280;5610;52.154;9.198;2022-07-23T14:33:00;100950.06;;;36.65;31.49
11114;BME280;5610;52.154;9.198;2022-07-23T14:35:45;100954.72;;;35.31;33.23
11114;BME280;5610;52.154;9.198;2022-07-23T14:38:30;100956.16;;;34.48;33.94
11114;BME280;5610;52.154;9.198;2022-07-23T14:41:16;100948.38;;;33.63;35.32
11114;BME280;5610;52.154;9.198;2022-07-23T14:44:03;100964.44;;;33.43;35.53
11114;BME280;5610;52.154;9.198;2022-07-23T14:46:48;100960.88;;;33.24;35.74